createdAt,value
2023-03-05T00:02:30.294Z,1.47
2023-03-05T00:09:21.443Z,1.30
2023-03-05T00:12:44.024Z,1.28
2023-03-05T00:16:07.443Z,1.34
2023-03-05T00:19:30.237Z,1.33
2023-03-05T00:22:53.019Z,1.23
2023-03-05T00:26:17.415Z,1.14
2023-03-05T00:29:40.054Z,1.13
2023-03-05T00:33:04.079Z,1.12
2023-03-05T00:36:26.679Z,1.13
2023-03-05T00:39:49.094Z,1.18
2023-03-05T00:43:13.257Z,1.09
2023-03-05T00:46:35.866Z,1.07
2023-03-05T00:49:58.992Z,1.03
2023-03-05T00:53:21.787Z,0.95
2023-03-05T00:56:45.065Z,0.83
2023-03-05T01:00:11.781Z,0.77
2023-03-05T01:03:34.595Z,0.75
2023-03-05T01:06:57.404Z,0.77
2023-03-05T01:10:19.851Z,0.82
2023-03-05T01:13:46.085Z,0.82
2023-03-05T01:17:11.057Z,0.78
2023-03-05T01:20:33.589Z,0.75
2023-03-05T01:23:56.074Z,0.85
2023-03-05T01:27:19.095Z,0.81
2023-03-05T01:30:41.540Z,0.73
2023-03-05T01:34:06.180Z,0.81
2023-03-05T01:37:28.609Z,0.86
2023-03-05T01:40:51.085Z,0.91
2023-03-05T01:44:23.100Z,1.07
2023-03-05T01:47:45.977Z,0.98
2023-03-05T01:51:09.738Z,0.81
2023-03-05T01:54:35.001Z,0.83
2023-03-05T01:57:59.553Z,1.00
2023-03-05T02:01:22.488Z,0.96
2023-03-05T02:04:47.532Z,0.96
2023-03-05T02:08:12.364Z,1.18
2023-03-05T02:11:35.325Z,1.33
2023-03-05T02:14:59.510Z,1.48
2023-03-05T02:18:22.098Z,1.46
2023-03-05T02:21:47.057Z,1.50
2023-03-05T02:25:17.978Z,1.51
2023-03-05T02:28:41.768Z,1.72
2023-03-05T02:32:04.410Z,1.67
2023-03-05T02:35:27.375Z,1.85
2023-03-05T02:38:53.008Z,1.91
2023-03-05T02:42:16.627Z,2.05
2023-03-05T02:45:39.385Z,1.94
2023-03-05T02:49:02.518Z,2.16
2023-03-05T02:52:25.648Z,2.07
2023-03-05T02:55:50.198Z,2.18
2023-03-05T02:59:12.743Z,2.09
2023-03-05T03:02:38.946Z,2.20
2023-03-05T03:06:01.204Z,2.09
2023-03-05T03:09:23.875Z,2.21
2023-03-05T03:12:47.756Z,2.38
2023-03-05T03:16:11.722Z,2.48
2023-03-05T03:19:33.933Z,2.40
2023-03-05T03:22:56.392Z,2.52
2023-03-05T03:26:19.378Z,2.26
2023-03-05T03:29:43.305Z,2.31
2023-03-05T03:33:05.755Z,2.57
2023-03-05T03:36:28.259Z,2.55
2023-03-05T03:39:50.713Z,2.40
2023-03-05T03:43:13.103Z,2.53
2023-03-05T03:46:37.444Z,2.56
2023-03-05T03:50:00.456Z,2.43
2023-03-05T03:53:22.848Z,2.62
2023-03-05T03:56:45.940Z,2.57
2023-03-05T04:00:10.250Z,2.49
2023-03-05T04:03:35.727Z,2.43
2023-03-05T04:06:58.614Z,2.37
2023-03-05T04:10:21.497Z,2.67
2023-03-05T04:13:44.421Z,2.56
2023-03-05T04:17:06.885Z,2.63
2023-03-05T04:20:30.983Z,2.65
2023-03-05T04:23:53.459Z,2.66
2023-03-05T04:27:15.939Z,2.69
2023-03-05T04:30:38.117Z,2.67
2023-03-05T04:34:00.871Z,2.58
2023-03-05T04:37:24.824Z,2.62
2023-03-05T04:40:47.647Z,2.74
2023-03-05T04:44:10.169Z,2.73
2023-03-05T04:47:32.693Z,2.60
2023-03-05T04:50:55.184Z,2.74
2023-03-05T04:54:19.141Z,2.65
2023-03-05T04:57:41.797Z,2.90
2023-03-05T05:01:04.726Z,2.73
2023-03-05T05:04:27.026Z,2.76
2023-03-05T05:07:49.835Z,2.80
2023-03-05T05:11:14.945Z,2.61
2023-03-05T05:14:37.735Z,2.78
2023-03-05T05:18:00.241Z,2.67
2023-03-05T05:21:22.845Z,2.59
2023-03-05T05:24:45.197Z,2.61
2023-03-05T05:28:08.991Z,2.52
2023-03-05T05:31:31.313Z,2.43
2023-03-05T05:34:55.665Z,2.60
2023-03-05T05:38:18.184Z,2.55
2023-03-05T05:41:43.426Z,2.55
2023-03-05T05:45:08.263Z,2.57
2023-03-05T05:48:31.168Z,2.66
2023-03-05T05:51:53.412Z,2.52
2023-03-05T05:55:15.937Z,2.72
2023-03-05T05:58:38.606Z,2.67
2023-03-05T06:02:02.640Z,2.78
2023-03-05T06:05:25.925Z,2.83
2023-03-05T06:08:47.974Z,2.97
2023-03-05T06:12:11.397Z,3.00
2023-03-05T06:15:34.057Z,2.98
2023-03-05T06:18:59.073Z,3.14
2023-03-05T06:22:21.501Z,3.11
2023-03-05T06:25:44.427Z,3.26
2023-03-05T06:29:06.916Z,3.07
2023-03-05T06:32:29.453Z,3.21
2023-03-05T06:35:53.491Z,3.13
2023-03-05T06:39:16.475Z,3.30
2023-03-05T06:42:39.044Z,3.06
2023-03-05T06:46:05.087Z,3.27
2023-03-05T06:49:27.422Z,3.42
2023-03-05T06:52:52.053Z,3.46
2023-03-05T06:56:16.750Z,3.58
2023-03-05T06:59:39.245Z,3.68
2023-03-05T07:03:01.620Z,3.70
2023-03-05T07:06:24.289Z,3.63
2023-03-05T07:09:50.376Z,3.79
2023-03-05T07:13:13.442Z,3.89
2023-03-05T07:16:36.165Z,4.07
2023-03-05T07:19:59.107Z,3.94
2023-03-05T07:23:21.242Z,4.07
2023-03-05T07:26:45.843Z,4.13
2023-03-05T07:30:10.744Z,4.09
2023-03-05T07:33:33.708Z,4.17
2023-03-05T07:36:56.265Z,4.05
2023-03-05T07:40:19.533Z,4.25
2023-03-05T07:43:43.193Z,4.15
2023-03-05T07:47:06.110Z,4.16
2023-03-05T07:50:28.870Z,4.29
2023-03-05T07:53:51.787Z,4.45
2023-03-05T07:57:16.108Z,4.20
2023-03-05T08:00:40.643Z,4.37
2023-03-05T08:04:04.053Z,4.37
2023-03-05T08:07:26.333Z,4.39
2023-03-05T08:10:48.803Z,4.63
2023-03-05T08:14:11.730Z,4.55
2023-03-05T08:17:35.872Z,4.53
2023-03-05T08:20:58.488Z,4.36
2023-03-05T08:24:20.993Z,4.41
2023-03-05T08:27:44.072Z,4.42
2023-03-05T08:31:10.245Z,4.30
2023-03-05T08:34:36.472Z,4.35
2023-03-05T08:37:59.134Z,4.27
2023-03-05T08:41:21.794Z,4.46
2023-03-05T08:44:46.512Z,4.55
2023-03-05T08:48:08.851Z,4.58
2023-03-05T08:51:33.281Z,4.63
2023-03-05T08:54:55.776Z,4.53
2023-03-05T08:58:18.931Z,4.68
2023-03-05T09:01:41.658Z,4.76
2023-03-05T09:05:04.938Z,4.74
2023-03-05T09:08:29.115Z,4.99
2023-03-05T09:11:52.124Z,4.97
2023-03-05T09:15:14.953Z,5.06
2023-03-05T09:18:40.189Z,5.18
2023-03-05T09:22:02.354Z,5.11
2023-03-05T09:25:26.298Z,5.22
2023-03-05T09:28:49.244Z,5.39
2023-03-05T09:32:12.003Z,5.29
2023-03-05T09:35:35.798Z,5.28
2023-03-05T09:38:58.832Z,5.37
2023-03-05T09:42:29.860Z,5.42
2023-03-05T09:46:07.433Z,5.65
2023-03-05T09:49:33.984Z,5.98
2023-03-05T09:52:57.495Z,5.87
2023-03-05T09:56:22.227Z,5.90
2023-03-05T09:59:48.482Z,5.93
2023-03-05T10:03:14.466Z,5.90
2023-03-05T10:06:37.657Z,5.93
2023-03-05T10:10:01.144Z,5.91
2023-03-05T10:13:25.672Z,6.19
2023-03-05T10:17:01.477Z,6.28
2023-03-05T10:20:36.617Z,6.36
2023-03-05T10:24:02.297Z,6.38
2023-03-05T10:27:34.040Z,6.33
2023-03-05T10:31:10.164Z,6.22
2023-03-05T10:34:46.178Z,6.32
2023-03-05T10:38:36.916Z,6.35
2023-03-05T10:42:06.186Z,6.39
2023-03-05T10:45:31.708Z,6.43
2023-03-05T10:48:56.186Z,6.38
2023-03-05T10:52:22.233Z,6.65
2023-03-05T10:55:45.682Z,6.73
2023-03-05T10:59:08.869Z,7.07
2023-03-05T11:02:31.673Z,6.80
2023-03-05T11:06:00.556Z,6.73
2023-03-05T11:09:29.244Z,6.88
2023-03-05T11:12:52.286Z,7.25
2023-03-05T11:16:20.865Z,7.58
2023-03-05T11:19:44.608Z,7.37
2023-03-05T11:23:11.932Z,6.95
2023-03-05T11:26:36.626Z,7.21
2023-03-05T11:30:00.285Z,6.93
2023-03-05T11:33:24.050Z,6.97
2023-03-05T11:37:03.664Z,6.63
2023-03-05T11:40:27.809Z,6.42
2023-03-05T11:43:53.576Z,6.38
2023-03-05T11:47:21.853Z,6.73
2023-03-05T11:50:50.114Z,6.67
2023-03-05T11:54:15.917Z,6.86
2023-03-05T11:57:43.211Z,6.62
2023-03-05T12:01:08.111Z,6.90
2023-03-05T12:04:32.247Z,6.70
2023-03-05T12:07:57.425Z,6.61
2023-03-05T12:11:25.572Z,6.61
2023-03-05T12:14:50.212Z,6.61
2023-03-05T12:18:29.025Z,6.66
2023-03-05T12:21:52.604Z,7.17
2023-03-05T12:25:26.977Z,7.75
2023-03-05T12:28:58.188Z,7.85
2023-03-05T12:33:01.604Z,7.73
2023-03-05T12:36:40.837Z,7.42
2023-03-05T12:40:15.879Z,7.16
2023-03-05T12:43:38.650Z,7.13
2023-03-05T12:47:23.768Z,7.17
2023-03-05T12:50:53.291Z,7.41
2023-03-05T12:54:40.538Z,7.37
2023-03-05T12:58:05.246Z,7.69
2023-03-05T13:01:33.990Z,7.83
2023-03-05T13:04:59.569Z,8.40
2023-03-05T13:08:24.614Z,10.40
2023-03-05T13:11:50.880Z,9.56
2023-03-05T13:15:16.882Z,9.08
2023-03-05T13:18:40.950Z,8.78
2023-03-05T13:22:08.390Z,9.35
2023-03-05T13:25:31.923Z,9.25
2023-03-05T13:29:12.094Z,8.51
2023-03-05T13:32:35.922Z,8.00
2023-03-05T13:36:02.490Z,7.26
2023-03-05T13:39:29.774Z,7.12
2023-03-05T13:42:56.420Z,7.12
2023-03-05T13:46:29.687Z,7.11
2023-03-05T13:50:00.210Z,7.10
2023-03-05T13:53:25.142Z,6.99
2023-03-05T13:56:54.893Z,7.07
2023-03-05T14:00:33.649Z,6.91
2023-03-05T14:04:01.234Z,6.73
2023-03-05T14:07:31.124Z,6.97
2023-03-05T14:10:54.702Z,7.06
2023-03-05T14:14:19.178Z,7.20
2023-03-05T14:17:43.382Z,6.86
2023-03-05T14:21:11.648Z,6.70
2023-03-05T14:24:35.878Z,6.65
2023-03-05T14:27:59.532Z,6.34
2023-03-05T14:31:24.127Z,6.26
2023-03-05T14:34:50.723Z,6.16
2023-03-05T14:38:20.876Z,5.91
2023-03-05T14:41:45.133Z,5.83
2023-03-05T14:45:16.344Z,5.79
2023-03-05T14:48:40.661Z,5.79
2023-03-05T14:52:07.240Z,5.75
2023-03-05T14:55:33.635Z,5.71
2023-03-05T14:58:58.116Z,5.72
2023-03-05T15:02:24.587Z,5.81
2023-03-05T15:05:50.687Z,5.83
2023-03-05T15:09:18.241Z,5.95
2023-03-05T15:12:47.269Z,5.88
2023-03-05T15:16:14.737Z,5.76
2023-03-05T15:19:40.220Z,5.73
2023-03-05T15:23:04.850Z,5.75
2023-03-05T15:26:29.904Z,5.74
2023-03-05T15:29:58.554Z,5.62
2023-03-05T15:33:24.439Z,5.59
2023-03-05T15:36:48.347Z,5.56
2023-03-05T15:40:14.009Z,5.71
2023-03-05T15:43:39.169Z,5.51
2023-03-05T15:47:06.364Z,5.38
2023-03-05T15:50:31.348Z,5.33
2023-03-05T15:53:58.580Z,5.36
2023-03-05T15:57:23.387Z,5.28
2023-03-05T16:00:49.570Z,5.31
2023-03-05T16:04:17.483Z,5.17
2023-03-05T16:07:46.214Z,5.20
2023-03-05T16:11:11.359Z,5.24
2023-03-05T16:14:39.115Z,5.12
2023-03-05T16:18:05.052Z,5.12
2023-03-05T16:21:32.921Z,5.11
2023-03-05T16:24:57.505Z,4.94
2023-03-05T16:28:21.057Z,4.95
2023-03-05T16:31:46.122Z,4.91
2023-03-05T16:35:12.569Z,4.79
2023-03-05T16:38:39.257Z,4.75
2023-03-05T16:42:05.079Z,4.56
2023-03-05T16:45:29.710Z,4.55
2023-03-05T16:48:54.905Z,4.49
2023-03-05T16:52:23.426Z,4.51
2023-03-05T16:55:51.429Z,4.50
2023-03-05T16:59:16.656Z,4.49
2023-03-05T17:02:42.793Z,4.32
2023-03-05T17:06:11.597Z,4.26
2023-03-05T17:09:40.852Z,4.35
2023-03-05T17:13:07.236Z,4.25
2023-03-05T17:16:32.628Z,4.20
2023-03-05T17:19:57.850Z,4.25
2023-03-05T17:23:22.846Z,4.03
2023-03-05T17:26:49.682Z,4.20
2023-03-05T17:30:16.177Z,4.16
2023-03-05T17:33:42.629Z,4.09
2023-03-05T17:37:08.189Z,4.01
2023-03-05T17:40:34.986Z,3.95
2023-03-05T17:44:03.521Z,3.96
2023-03-05T17:47:33.328Z,3.86
2023-03-05T17:50:57.415Z,3.98
2023-03-05T17:54:22.547Z,3.93
2023-03-05T17:57:48.575Z,3.92
2023-03-05T18:01:14.560Z,3.80
2023-03-05T18:04:41.606Z,3.82
2023-03-05T18:08:06.629Z,3.80
2023-03-05T18:11:32.128Z,3.71
2023-03-05T18:14:59.957Z,3.63
2023-03-05T18:18:28.829Z,3.47
2023-03-05T18:21:56.869Z,3.72
2023-03-05T18:25:22.151Z,3.72
2023-03-05T18:28:47.733Z,3.91
2023-03-05T18:32:13.824Z,3.82
2023-03-05T18:35:39.639Z,3.87
2023-03-05T18:39:09.196Z,3.94
2023-03-05T18:42:34.584Z,3.88
2023-03-05T18:45:59.162Z,3.96
2023-03-05T18:49:24.189Z,3.90
2023-03-05T18:52:54.401Z,3.73
2023-03-05T18:56:23.594Z,3.61
2023-03-05T18:59:49.309Z,3.89
2023-03-05T19:03:15.124Z,3.69
2023-03-05T19:06:40.540Z,3.81
2023-03-05T19:10:08.959Z,3.79
2023-03-05T19:13:40.371Z,3.63
2023-03-05T19:17:06.531Z,3.58
2023-03-05T19:20:31.470Z,3.55
2023-03-05T19:23:55.954Z,3.31
2023-03-05T19:27:20.810Z,3.49
2023-03-05T19:30:49.564Z,3.31
2023-03-05T19:34:14.716Z,3.22
2023-03-05T19:37:41.064Z,3.34
2023-03-05T19:41:10.225Z,3.28
2023-03-05T19:44:35.757Z,3.34
2023-03-05T19:48:05.864Z,3.27
2023-03-05T19:51:31.160Z,3.07
2023-03-05T19:55:00.227Z,3.25
2023-03-05T19:58:23.962Z,3.13
2023-03-05T20:01:49.126Z,3.24
2023-03-05T20:05:23.667Z,3.12
2023-03-05T20:08:48.254Z,2.86
2023-03-05T20:12:16.843Z,2.91
2023-03-05T20:15:40.564Z,2.84
2023-03-05T20:19:06.679Z,2.53
2023-03-05T20:22:33.030Z,2.72
2023-03-05T20:25:58.384Z,2.69
2023-03-05T20:29:25.586Z,2.35
2023-03-05T20:32:52.242Z,2.47
2023-03-05T20:36:17.750Z,2.46
2023-03-05T20:39:47.256Z,2.09
2023-03-05T20:43:13.370Z,1.98
2023-03-05T20:46:40.594Z,2.57
2023-03-05T20:50:07.946Z,2.24
2023-03-05T20:53:33.580Z,1.93
2023-03-05T20:57:00.676Z,2.36
2023-03-05T21:00:25.754Z,2.33
2023-03-05T21:03:50.251Z,2.47
2023-03-05T21:07:15.031Z,2.25
2023-03-05T21:10:39.705Z,2.29
2023-03-05T21:14:05.846Z,2.43
2023-03-05T21:17:29.845Z,2.26
2023-03-05T21:20:55.107Z,2.64
2023-03-05T21:24:24.541Z,2.66
2023-03-05T21:27:52.572Z,2.66
2023-03-05T21:31:21.010Z,2.26
2023-03-05T21:34:52.328Z,2.39
2023-03-05T21:38:16.032Z,2.46
2023-03-05T21:41:41.028Z,3.05
2023-03-05T21:45:05.658Z,3.05
2023-03-05T21:48:30.325Z,3.28
2023-03-05T21:52:05.420Z,3.02
2023-03-05T21:55:33.416Z,3.02
2023-03-05T21:58:56.208Z,3.14
2023-03-05T22:02:19.949Z,3.27
2023-03-05T22:05:44.814Z,3.22
2023-03-05T22:09:07.563Z,3.28
2023-03-05T22:12:43.735Z,3.03
2023-03-05T22:16:09.178Z,3.21
2023-03-05T22:19:31.918Z,3.19
2023-03-05T22:22:55.828Z,3.03
2023-03-05T22:26:18.438Z,3.38
2023-03-05T22:29:40.877Z,3.06
2023-03-05T22:33:03.834Z,3.33
2023-03-05T22:36:26.186Z,3.11
2023-03-05T22:39:50.143Z,3.12
2023-03-05T22:43:12.768Z,2.88
2023-03-05T22:46:35.395Z,3.04
2023-03-05T22:49:58.490Z,3.61
2023-03-05T22:53:21.453Z,3.23
2023-03-05T22:56:45.408Z,3.13
2023-03-05T23:00:09.294Z,2.96
2023-03-05T23:03:31.626Z,3.10
2023-03-05T23:06:57.825Z,3.12
2023-03-05T23:10:21.286Z,2.93
2023-03-05T23:13:45.485Z,2.75
2023-03-05T23:17:07.865Z,2.95
2023-03-05T23:20:31.649Z,3.55
2023-03-05T23:23:56.590Z,3.26
2023-03-05T23:27:19.550Z,3.35
2023-03-05T23:30:46.526Z,3.51
2023-03-05T23:34:09.291Z,3.56
2023-03-05T23:37:31.980Z,3.31
2023-03-05T23:40:55.738Z,3.07
2023-03-05T23:44:18.040Z,3.16
2023-03-05T23:47:41.934Z,3.56
2023-03-05T23:51:09.291Z,3.14
2023-03-05T23:54:32.428Z,3.31
2023-03-05T23:57:55.072Z,3.19
